Terminal Aerodrome Forecast
Issued by NWS

Home | Current Version | Previous Version | Text Only | Print | Product List | Glossary Off
Versions: 1 2 3 4 5 6 7 8 9 10 11 12 13 14 15 16 17

000
FTUS43 KMPX 282122 AAA
TAFAXN
TAF AMD
KAXN 282122Z 2821/2918 32011G17KT P6SM FEW050
     FM290200 32005KT P6SM SCT050
     FM291200 29008KT P6SM BKN100=

USA.gov is the U.S. government's official web portal to all federal, state and local government web resources and services.